臺北終端管制區 - 桃園北區雷達席

METAR RCTP 141530Z 07013KT 9999 FEW020 19/15 Q1021 NOSIG RMK A3015=

站台狀態:Online
最後更新:2019-12-14 23:45:02